Terminal Aerodrome Forecast
Issued by NWS Norman, OK

Home | Current Version | Previous Version | Text Only | Print | Product List | Glossary On
Versions: 1 2 3 4 5 6 7 8 9 10 11 12 13 14 15 16 17 18 19 20
000
FTUS44 KOUN 291243 AAA
TAFOKC
TAF AMD
KOKC 291243Z 2913/3012 17010KT P6SM SCT025 BKN200
      TEMPO 2918/2922 6SM -TSRA BR BKN010CB
     FM292200 16007KT P6SM BKN030
      TEMPO 2922/3002 6SM -TSRA BR BKN010CB
     FM300200 13011KT P6SM BKN250
     FM300900 16006KT P6SM OVC007=

USA.gov is the U.S. government's official web portal to all federal, state and local government web resources and services.